createdAt,value
2023-04-15T00:01:38.055Z,100539.28
2023-04-15T00:04:05.128Z,100542.66
2023-04-15T00:06:32.024Z,100534.06
2023-04-15T00:08:59.127Z,100537.50
2023-04-15T00:11:26.124Z,100529.00
2023-04-15T00:13:52.804Z,100534.13
2023-04-15T00:16:19.494Z,100528.16
2023-04-15T00:18:46.376Z,100521.28
2023-04-15T00:21:13.246Z,100519.59
2023-04-15T00:23:40.049Z,100522.19
2023-04-15T00:26:07.582Z,100524.75
2023-04-15T00:28:34.461Z,100517.06
2023-04-15T00:31:03.353Z,100517.03
2023-04-15T00:33:30.085Z,100515.28
2023-04-15T00:35:57.139Z,100510.09
2023-04-15T00:38:24.327Z,100501.50
2023-04-15T00:40:51.058Z,100510.94
2023-04-15T00:43:17.840Z,100508.38
2023-04-15T00:45:44.685Z,100500.63
2023-04-15T00:48:12.027Z,100505.75
2023-04-15T00:50:39.042Z,100498.09
2023-04-15T00:53:05.889Z,100497.22
2023-04-15T00:55:32.685Z,100486.97
2023-04-15T00:57:59.477Z,100487.84
2023-04-15T01:00:26.868Z,100484.44
2023-04-15T01:02:53.865Z,100479.25
2023-04-15T01:05:20.794Z,100488.66
2023-04-15T01:07:48.847Z,100481.81
2023-04-15T01:10:15.806Z,100481.78
2023-04-15T01:12:43.369Z,100480.06
2023-04-15T01:15:11.212Z,100486.13
2023-04-15T01:17:38.615Z,100484.41
2023-04-15T01:20:10.186Z,100482.63
2023-04-15T01:22:38.523Z,100487.69
2023-04-15T01:25:17.085Z,100499.69
2023-04-15T01:29:03.492Z,100496.94
2023-04-15T01:31:30.725Z,100491.72
2023-04-15T01:33:57.640Z,100489.09
2023-04-15T01:36:24.459Z,100484.78
2023-04-15T01:38:53.999Z,100489.88
2023-04-15T01:41:27.146Z,100494.97
2023-04-15T01:43:54.638Z,100490.59
2023-04-15T01:46:21.552Z,100487.16
2023-04-15T01:48:48.446Z,100498.28
2023-04-15T01:51:15.216Z,100501.72
2023-04-15T01:53:42.099Z,100498.31
2023-04-15T01:56:34.144Z,100504.25
2023-04-15T01:59:01.926Z,100495.72
2023-04-15T02:01:28.925Z,100511.03
2023-04-15T02:03:59.279Z,100503.28
2023-04-15T02:06:26.043Z,100504.06
2023-04-15T02:08:55.428Z,100493.72
2023-04-15T02:11:23.269Z,100490.22
2023-04-15T02:13:50.385Z,100478.22
2023-04-15T02:16:19.450Z,100491.06
2023-04-15T02:18:47.108Z,100485.91
2023-04-15T02:21:14.223Z,100490.19
2023-04-15T02:23:41.156Z,100497.84
2023-04-15T02:26:08.311Z,100496.16
2023-04-15T02:28:35.899Z,100487.59
2023-04-15T02:31:06.657Z,100496.91
2023-04-15T02:33:33.876Z,100497.66
2023-04-15T02:36:01.135Z,100495.06
2023-04-15T02:38:28.589Z,100506.94
2023-04-15T02:40:55.540Z,100511.16
2023-04-15T02:43:22.400Z,100519.66
2023-04-15T02:45:51.349Z,100522.25
2023-04-15T02:48:19.810Z,100524.81
2023-04-15T02:50:47.145Z,100521.44
2023-04-15T02:53:15.107Z,100529.09
2023-04-15T02:55:42.972Z,100526.53
2023-04-15T02:58:10.026Z,100525.66
2023-04-15T03:00:36.923Z,100528.34
2023-04-15T03:03:06.101Z,100517.16
2023-04-15T03:05:33.140Z,100516.22
2023-04-15T03:08:01.470Z,100509.34
2023-04-15T03:10:28.703Z,100511.06
2023-04-15T03:12:55.757Z,100503.38
2023-04-15T03:15:23.914Z,100498.25
2023-04-15T03:17:53.057Z,100487.94
2023-04-15T03:20:20.442Z,100503.28
2023-04-15T03:22:48.426Z,100498.16
2023-04-15T03:25:15.746Z,100491.28
2023-04-15T03:27:43.220Z,100492.94
2023-04-15T03:30:11.629Z,100488.63
2023-04-15T03:32:39.306Z,100488.50
2023-04-15T03:35:08.310Z,100483.28
2023-04-15T03:37:35.020Z,100471.22
2023-04-15T03:40:02.675Z,100476.38
2023-04-15T03:42:29.439Z,100474.66
2023-04-15T03:44:56.311Z,100466.13
2023-04-15T03:47:23.453Z,100461.81
2023-04-15T03:49:50.159Z,100454.00
2023-04-15T03:52:16.913Z,100444.44
2023-04-15T03:54:43.703Z,100448.75
2023-04-15T03:57:10.573Z,100450.44
2023-04-15T03:59:37.260Z,100451.16
2023-04-15T04:02:04.110Z,100452.16
2023-04-15T04:04:31.074Z,100451.25
2023-04-15T04:06:57.875Z,100447.59
2023-04-15T04:09:24.698Z,100444.28
2023-04-15T04:11:51.453Z,100439.22
2023-04-15T04:14:18.115Z,100450.06
2023-04-15T04:16:45.401Z,100452.50
2023-04-15T04:19:12.312Z,100447.22
2023-04-15T04:21:39.736Z,100449.25
2023-04-15T04:24:06.490Z,100454.25
2023-04-15T04:26:33.209Z,100453.47
2023-04-15T04:29:00.096Z,100468.13
2023-04-15T04:31:27.346Z,100465.66
2023-04-15T04:33:54.071Z,100469.97
2023-04-15T04:36:21.088Z,100470.78
2023-04-15T04:38:47.767Z,100473.13
2023-04-15T04:41:14.540Z,100469.63
2023-04-15T04:43:41.276Z,100489.38
2023-04-15T04:46:08.067Z,100487.88
2023-04-15T04:48:34.879Z,100489.88
2023-04-15T04:51:02.071Z,100494.16
2023-04-15T04:53:28.827Z,100501.19
2023-04-15T04:55:55.768Z,100502.22
2023-04-15T04:58:22.412Z,100511.78
2023-04-15T05:00:49.267Z,100515.97
2023-04-15T05:03:16.267Z,100517.00
2023-04-15T05:05:43.511Z,100525.69
2023-04-15T05:08:10.164Z,100535.81
2023-04-15T05:10:36.962Z,100541.91
2023-04-15T05:13:03.895Z,100533.38
2023-04-15T05:15:30.731Z,100547.13
2023-04-15T05:17:57.666Z,100546.31
2023-04-15T05:20:24.456Z,100544.63
2023-04-15T05:22:51.188Z,100543.84
2023-04-15T05:25:18.134Z,100535.25
2023-04-15T05:27:44.870Z,100548.03
2023-04-15T05:30:13.387Z,100542.97
2023-04-15T05:32:40.932Z,100543.94
2023-04-15T05:35:08.618Z,100538.72
2023-04-15T05:37:35.596Z,100553.22
2023-04-15T05:40:02.436Z,100550.66
2023-04-15T05:42:29.135Z,100556.72
2023-04-15T05:44:56.284Z,100558.56
2023-04-15T05:47:23.004Z,100549.16
2023-04-15T05:49:49.792Z,100554.22
2023-04-15T05:52:16.754Z,100558.50
2023-04-15T05:54:44.132Z,100550.84
2023-04-15T05:57:11.000Z,100547.44
2023-04-15T05:59:38.934Z,100556.19
2023-04-15T06:02:06.365Z,100552.03
2023-04-15T06:04:33.268Z,100556.34
2023-04-15T06:07:00.040Z,100549.56
2023-04-15T06:09:26.976Z,100561.50
2023-04-15T06:11:53.670Z,100559.00
2023-04-15T06:14:21.729Z,100560.81
2023-04-15T06:16:48.416Z,100560.81
2023-04-15T06:19:15.998Z,100545.41
2023-04-15T06:21:42.902Z,100554.03
2023-04-15T06:24:09.633Z,100555.69
2023-04-15T06:26:36.373Z,100560.00
2023-04-15T06:29:03.305Z,100559.13
2023-04-15T06:31:30.745Z,100552.31
2023-04-15T06:33:57.453Z,100551.47
2023-04-15T06:36:24.257Z,100544.69
2023-04-15T06:38:51.155Z,100541.28
2023-04-15T06:41:18.181Z,100544.69
2023-04-15T06:43:44.960Z,100540.38
2023-04-15T06:46:11.822Z,100542.94
2023-04-15T06:48:38.956Z,100536.84
2023-04-15T06:51:06.226Z,100541.06
2023-04-15T06:53:32.981Z,100544.53
2023-04-15T06:55:59.848Z,100545.34
2023-04-15T06:58:26.597Z,100541.06
2023-04-15T07:00:53.363Z,100546.91
2023-04-15T07:03:20.336Z,100546.88
2023-04-15T07:05:47.236Z,100551.28
2023-04-15T07:08:14.142Z,100552.13
2023-04-15T07:10:41.576Z,100546.19
2023-04-15T07:13:08.991Z,100550.66
2023-04-15T07:15:35.970Z,100560.16
2023-04-15T07:18:02.893Z,100551.63
2023-04-15T07:20:29.772Z,100547.47
2023-04-15T07:22:56.828Z,100553.47
2023-04-15T07:25:23.590Z,100561.28
2023-04-15T07:27:50.650Z,100545.03
2023-04-15T07:30:17.385Z,100546.00
2023-04-15T07:32:44.111Z,100545.28
2023-04-15T07:35:11.700Z,100543.72
2023-04-15T07:37:38.405Z,100547.28
2023-04-15T07:40:07.192Z,100538.03
2023-04-15T07:42:34.707Z,100537.19
2023-04-15T07:45:01.637Z,100539.03
2023-04-15T07:47:28.424Z,100539.13
2023-04-15T07:49:55.602Z,100532.31
2023-04-15T07:52:22.477Z,100535.72
2023-04-15T07:54:49.305Z,100532.44
2023-04-15T07:57:17.120Z,100535.03
2023-04-15T07:59:44.013Z,100530.78
2023-04-15T08:02:12.042Z,100540.25
2023-04-15T08:04:39.501Z,100533.47
2023-04-15T08:07:06.331Z,100537.81
2023-04-15T08:09:33.201Z,100536.13
2023-04-15T08:12:00.007Z,100535.31
2023-04-15T08:14:27.143Z,100529.34
2023-04-15T08:16:53.916Z,100528.59
2023-04-15T08:19:21.283Z,100527.84
2023-04-15T08:21:48.028Z,100521.03
2023-04-15T08:24:15.689Z,100527.06
2023-04-15T08:26:42.853Z,100522.81
2023-04-15T08:29:09.575Z,100519.50
2023-04-15T08:31:36.325Z,100519.59
2023-04-15T08:34:03.810Z,100523.91
2023-04-15T08:36:32.261Z,100518.03
2023-04-15T08:39:01.551Z,100519.78
2023-04-15T08:41:34.808Z,100524.09
2023-04-15T08:44:04.976Z,100524.16
2023-04-15T08:46:36.020Z,100533.63
2023-04-15T08:49:09.418Z,100528.53
2023-04-15T08:51:36.751Z,100526.84
2023-04-15T08:54:04.545Z,100532.00
2023-04-15T08:56:35.984Z,100531.22
2023-04-15T08:59:03.880Z,100528.63
2023-04-15T09:01:32.314Z,100518.38
2023-04-15T09:03:59.804Z,100519.22
2023-04-15T09:06:27.126Z,100527.81
2023-04-15T09:08:53.959Z,100528.75
2023-04-15T09:11:22.573Z,100527.06
2023-04-15T09:13:49.839Z,100522.84
2023-04-15T09:16:16.532Z,100526.34
2023-04-15T09:18:43.401Z,100522.06
2023-04-15T09:21:15.822Z,100528.06
2023-04-15T09:23:56.275Z,100527.25
2023-04-15T09:26:37.854Z,100528.97
2023-04-15T09:29:09.873Z,100517.81
2023-04-15T09:31:37.834Z,100516.94
2023-04-15T09:34:04.817Z,100518.69
2023-04-15T09:36:52.281Z,100516.09
2023-04-15T09:39:19.350Z,100506.66
2023-04-15T09:41:46.089Z,100504.09
2023-04-15T09:44:26.608Z,100499.75
2023-04-15T09:46:53.650Z,100492.03
2023-04-15T09:49:21.100Z,100498.91
2023-04-15T09:52:03.986Z,100489.44
2023-04-15T09:54:37.324Z,100499.75
2023-04-15T09:57:10.383Z,100490.28
2023-04-15T09:59:37.388Z,100498.88
2023-04-15T10:02:07.829Z,100492.88
2023-04-15T10:04:38.387Z,100478.28
2023-04-15T10:07:06.551Z,100479.97
2023-04-15T10:09:35.445Z,100473.94
2023-04-15T10:12:04.928Z,100485.16
2023-04-15T10:14:35.894Z,100479.94
2023-04-15T10:17:05.300Z,100470.47
2023-04-15T10:19:33.866Z,100473.00
2023-04-15T10:22:00.923Z,100472.16
2023-04-15T10:24:28.440Z,100458.41
2023-04-15T10:26:55.699Z,100466.16
2023-04-15T10:29:25.592Z,100460.97
2023-04-15T10:31:52.798Z,100459.25
2023-04-15T10:34:19.799Z,100460.94
2023-04-15T10:36:47.183Z,100462.63
2023-04-15T10:39:43.427Z,100455.72
2023-04-15T10:42:15.501Z,100455.66
2023-04-15T10:44:44.746Z,100449.63
2023-04-15T10:47:19.155Z,100455.66
2023-04-15T10:49:57.159Z,100452.19
2023-04-15T10:52:27.579Z,100453.06
2023-04-15T10:55:03.760Z,100447.03
2023-04-15T10:57:40.744Z,100450.47
2023-04-15T11:00:17.990Z,100447.84
2023-04-15T11:03:11.023Z,100443.50
2023-04-15T11:05:51.650Z,100440.81
2023-04-15T11:08:18.898Z,100439.06
2023-04-15T11:10:45.570Z,100432.22
2023-04-15T11:13:12.446Z,100435.59
2023-04-15T11:15:45.033Z,100426.94
2023-04-15T11:18:23.245Z,100426.06
2023-04-15T11:20:56.603Z,100426.03
2023-04-15T11:23:38.797Z,100426.00
2023-04-15T11:26:11.787Z,100418.31
2023-04-15T11:28:41.253Z,100413.97
2023-04-15T11:31:11.405Z,100412.28
2023-04-15T11:33:59.427Z,100402.81
2023-04-15T11:36:27.931Z,100415.00
2023-04-15T11:38:55.651Z,100400.41
2023-04-15T11:41:23.545Z,100405.53
2023-04-15T11:43:51.099Z,100399.56
2023-04-15T11:46:18.263Z,100398.69
2023-04-15T11:48:46.929Z,100397.78
2023-04-15T11:51:14.697Z,100400.41
2023-04-15T11:53:47.175Z,100390.09
2023-04-15T11:56:25.208Z,100398.72
2023-04-15T11:58:59.682Z,100396.09
2023-04-15T12:01:35.175Z,100402.22
2023-04-15T12:04:03.908Z,100386.75
2023-04-15T12:06:39.092Z,100392.75
2023-04-15T12:09:16.810Z,100392.78
2023-04-15T12:11:51.419Z,100395.34
2023-04-15T12:14:32.160Z,100391.94
2023-04-15T12:17:01.489Z,100394.53
2023-04-15T12:19:39.587Z,100392.00
2023-04-15T12:22:11.366Z,100386.03
2023-04-15T12:24:39.418Z,100389.41
2023-04-15T12:27:11.431Z,100383.41
2023-04-15T12:29:42.047Z,100381.69
2023-04-15T12:32:16.303Z,100382.59
2023-04-15T12:34:54.593Z,100385.19
2023-04-15T12:37:21.790Z,100385.13
2023-04-15T12:39:51.875Z,100387.69
2023-04-15T12:42:19.107Z,100379.84
2023-04-15T12:44:49.429Z,100384.09
2023-04-15T12:47:16.245Z,100378.03
2023-04-15T12:49:43.361Z,100368.53
2023-04-15T12:52:10.274Z,100373.66
2023-04-15T12:54:37.263Z,100380.56
2023-04-15T12:57:06.959Z,100377.94
2023-04-15T12:59:34.271Z,100377.84
2023-04-15T13:02:02.867Z,100366.59
2023-04-15T13:04:33.351Z,100374.38
2023-04-15T13:07:00.325Z,100371.84
2023-04-15T13:09:27.204Z,100371.94
2023-04-15T13:11:54.665Z,100365.06
2023-04-15T13:14:21.860Z,100367.56
2023-04-15T13:16:48.731Z,100364.06
2023-04-15T13:19:15.916Z,100362.31
2023-04-15T13:21:42.808Z,100368.25
2023-04-15T13:24:09.856Z,100364.91
2023-04-15T13:26:36.793Z,100364.13
2023-04-15T13:29:04.684Z,100364.22
2023-04-15T13:31:31.588Z,100367.72
2023-04-15T13:33:58.404Z,100366.09
2023-04-15T13:36:26.488Z,100378.19
2023-04-15T13:38:53.297Z,100380.81
2023-04-15T13:41:21.261Z,100374.88
2023-04-15T13:43:48.142Z,100380.97
2023-04-15T13:46:15.008Z,100385.31
2023-04-15T13:48:42.231Z,100394.84
2023-04-15T13:51:09.040Z,100396.53
2023-04-15T13:53:38.530Z,100386.28
2023-04-15T13:56:09.782Z,100388.03
2023-04-15T13:58:37.887Z,100401.81
2023-04-15T14:01:06.791Z,100405.25
2023-04-15T14:03:37.493Z,100415.59
2023-04-15T14:06:06.429Z,100415.59
2023-04-15T14:08:33.530Z,100425.91
2023-04-15T14:11:00.673Z,100436.19
2023-04-15T14:13:27.422Z,100437.06
2023-04-15T14:15:54.446Z,100440.50
2023-04-15T14:18:21.730Z,100435.34
2023-04-15T14:20:48.614Z,100436.22
2023-04-15T14:23:15.371Z,100427.63
2023-04-15T14:25:42.285Z,100431.94
2023-04-15T14:28:09.166Z,100432.75
2023-04-15T14:30:36.176Z,100436.16
2023-04-15T14:33:03.932Z,100436.97
2023-04-15T14:35:31.568Z,100443.81
2023-04-15T14:37:58.496Z,100444.66
2023-04-15T14:40:25.340Z,100443.84
2023-04-15T14:42:52.224Z,100432.56
2023-04-15T14:45:19.173Z,100453.06
2023-04-15T14:47:46.704Z,100455.53
2023-04-15T14:50:13.598Z,100458.81
2023-04-15T14:52:40.472Z,100463.94
2023-04-15T14:55:12.489Z,100457.97
2023-04-15T14:57:41.250Z,100459.00
2023-04-15T15:00:10.655Z,100454.75
2023-04-15T15:02:40.469Z,100453.06
2023-04-15T15:05:08.883Z,100453.94
2023-04-15T15:07:37.166Z,100444.53
2023-04-15T15:10:05.027Z,100447.94
2023-04-15T15:12:33.123Z,100443.66
2023-04-15T15:15:00.473Z,100434.25
2023-04-15T15:17:28.375Z,100434.25
2023-04-15T15:19:55.200Z,100430.81
2023-04-15T15:22:22.000Z,100433.28
2023-04-15T15:24:48.813Z,100431.44
2023-04-15T15:27:15.624Z,100433.09
2023-04-15T15:29:42.495Z,100432.19
2023-04-15T15:32:09.268Z,100429.69
2023-04-15T15:34:36.103Z,100416.81
2023-04-15T15:37:03.062Z,100420.19
2023-04-15T15:39:30.035Z,100434.72
2023-04-15T15:41:56.781Z,100427.84
2023-04-15T15:44:23.572Z,100433.81
2023-04-15T15:46:51.213Z,100428.72
2023-04-15T15:49:18.570Z,100427.78
2023-04-15T15:51:45.997Z,100425.19
2023-04-15T15:54:13.207Z,100424.28
2023-04-15T15:56:39.970Z,100416.59
2023-04-15T15:59:07.079Z,100421.69
2023-04-15T16:01:34.199Z,100425.09
2023-04-15T16:04:01.351Z,100419.03
2023-04-15T16:06:28.794Z,100416.44
2023-04-15T16:08:55.662Z,100420.72
2023-04-15T16:11:23.340Z,100418.19
2023-04-15T16:13:50.112Z,100404.50
2023-04-15T16:16:17.064Z,100406.22
2023-04-15T16:18:43.870Z,100397.63
2023-04-15T16:21:11.130Z,100395.88
2023-04-15T16:23:38.427Z,100394.22
2023-04-15T16:26:05.318Z,100384.78
2023-04-15T16:28:32.196Z,100383.03
2023-04-15T16:30:59.533Z,100395.88
2023-04-15T16:33:27.000Z,100388.13
2023-04-15T16:35:53.831Z,100391.59
2023-04-15T16:38:21.718Z,100389.88
2023-04-15T16:40:48.516Z,100380.50
2023-04-15T16:43:15.360Z,100378.75
2023-04-15T16:45:44.472Z,100374.50
2023-04-15T16:48:11.368Z,100368.50
2023-04-15T16:50:38.224Z,100363.38
2023-04-15T16:53:05.097Z,100363.38
2023-04-15T16:55:31.859Z,100354.81
2023-04-15T16:58:02.156Z,100357.38
2023-04-15T17:00:31.769Z,100364.22
2023-04-15T17:03:00.212Z,100360.78
2023-04-15T17:05:31.229Z,100356.53
2023-04-15T17:07:58.107Z,100365.94
2023-04-15T17:10:24.916Z,100365.91
2023-04-15T17:12:52.707Z,100366.78
2023-04-15T17:15:21.447Z,100365.94
2023-04-15T17:17:48.394Z,100372.81
2023-04-15T17:20:17.415Z,100360.78
2023-04-15T17:22:44.287Z,100361.63
2023-04-15T17:25:11.208Z,100376.22
2023-04-15T17:27:38.712Z,100377.09
2023-04-15T17:30:07.242Z,100374.53
2023-04-15T17:32:34.970Z,100384.75
2023-04-15T17:35:06.047Z,100384.78
2023-04-15T17:37:33.858Z,100383.94
2023-04-15T17:40:00.718Z,100389.91
2023-04-15T17:42:27.691Z,100387.34
2023-04-15T17:44:54.533Z,100406.19
2023-04-15T17:47:21.542Z,100410.41
2023-04-15T17:49:48.530Z,100417.28
2023-04-15T17:52:15.308Z,100420.69
2023-04-15T17:54:42.234Z,100425.00
2023-04-15T17:57:09.400Z,100429.25
2023-04-15T17:59:36.297Z,100422.38
2023-04-15T18:02:03.102Z,100431.81
2023-04-15T18:04:30.188Z,100438.59
2023-04-15T18:06:57.060Z,100436.81
2023-04-15T18:09:23.863Z,100447.09
2023-04-15T18:11:50.622Z,100457.38
2023-04-15T18:14:27.075Z,100459.88
2023-04-15T18:17:01.238Z,100454.72
2023-04-15T18:19:28.151Z,100452.97
2023-04-15T18:21:55.001Z,100465.81
2023-04-15T18:24:22.809Z,100464.75
2023-04-15T18:26:49.735Z,100466.31
2023-04-15T18:29:16.693Z,100473.84
2023-04-15T18:31:44.034Z,100468.69
2023-04-15T18:34:11.014Z,100483.22
2023-04-15T18:36:37.899Z,100491.66
2023-04-15T18:39:05.539Z,100500.84
2023-04-15T18:41:32.730Z,100493.94
2023-04-15T18:43:59.475Z,100502.59
2023-04-15T18:46:26.470Z,100501.03
2023-04-15T18:48:53.276Z,100511.03
2023-04-15T18:51:20.326Z,100514.31
2023-04-15T18:53:47.134Z,100507.38
2023-04-15T18:56:14.197Z,100503.25
2023-04-15T18:59:27.792Z,100500.78
2023-04-15T19:01:27.998Z,100516.56
2023-04-15T19:03:54.867Z,100526.78
2023-04-15T19:06:22.384Z,100531.03
2023-04-15T19:08:49.189Z,100516.47
2023-04-15T19:11:16.072Z,100507.25
2023-04-15T19:13:42.863Z,100513.41
2023-04-15T19:16:10.166Z,100523.16
2023-04-15T19:18:37.418Z,100527.31
2023-04-15T19:21:04.445Z,100530.09
2023-04-15T19:23:32.019Z,100533.59
2023-04-15T19:25:58.877Z,100535.44
2023-04-15T19:28:28.246Z,100541.47
2023-04-15T19:30:55.320Z,100546.69
2023-04-15T19:33:22.232Z,100546.59
2023-04-15T19:35:50.232Z,100555.19
2023-04-15T19:38:17.229Z,100554.44
2023-04-15T19:40:44.324Z,100556.16
2023-04-15T19:43:11.084Z,100549.41
2023-04-15T19:45:37.897Z,100550.63
2023-04-15T19:48:06.304Z,100560.88
2023-04-15T19:50:33.271Z,100563.56
2023-04-15T19:53:01.032Z,100568.84
2023-04-15T19:55:27.881Z,100568.03
2023-04-15T19:57:54.699Z,100577.59
2023-04-15T20:00:21.804Z,100588.69
2023-04-15T20:02:48.852Z,100584.47
2023-04-15T20:05:15.815Z,100590.50
2023-04-15T20:07:43.338Z,100594.75
2023-04-15T20:10:13.185Z,100592.94
2023-04-15T20:12:50.673Z,100601.41
2023-04-15T20:15:21.615Z,100598.88
2023-04-15T20:17:48.494Z,100596.31
2023-04-15T20:20:15.389Z,100592.13
2023-04-15T20:22:42.405Z,100594.75
2023-04-15T20:25:09.612Z,100594.69
2023-04-15T20:27:36.586Z,100605.81
2023-04-15T20:30:05.267Z,100619.53
2023-04-15T20:32:36.128Z,100612.69
2023-04-15T20:35:06.946Z,100613.53
2023-04-15T20:37:34.156Z,100622.81
2023-04-15T20:40:01.776Z,100621.59
2023-04-15T20:42:32.714Z,100620.69
2023-04-15T20:44:59.753Z,100627.94
2023-04-15T20:47:26.649Z,100635.41
2023-04-15T20:49:54.308Z,100641.44
2023-04-15T20:52:21.271Z,100639.94
2023-04-15T20:54:48.188Z,100645.25
2023-04-15T20:57:14.975Z,100646.59
2023-04-15T20:59:41.875Z,100646.19
2023-04-15T21:02:08.827Z,100652.19
2023-04-15T21:04:36.021Z,100639.66
2023-04-15T21:07:02.778Z,100640.59
2023-04-15T21:09:29.609Z,100661.50
2023-04-15T21:12:01.671Z,100646.22
2023-04-15T21:14:29.316Z,100648.91
2023-04-15T21:16:58.195Z,100637.91
2023-04-15T21:19:25.017Z,100646.56
2023-04-15T21:21:52.414Z,100650.09
2023-04-15T21:24:19.341Z,100654.53
2023-04-15T21:26:46.086Z,100655.16
2023-04-15T21:29:13.241Z,100660.22
2023-04-15T21:31:40.567Z,100658.50
2023-04-15T21:34:07.610Z,100668.81
2023-04-15T21:36:34.414Z,100661.19
2023-04-15T21:39:01.264Z,100657.94
2023-04-15T21:41:28.192Z,100660.50
2023-04-15T21:43:56.410Z,100654.53
2023-04-15T21:46:25.737Z,100662.22
2023-04-15T21:49:00.196Z,100669.91
2023-04-15T21:51:27.796Z,100667.41
2023-04-15T21:53:54.928Z,100658.22
2023-04-15T21:56:24.316Z,100673.81
2023-04-15T21:58:59.445Z,100681.94
2023-04-15T22:01:26.804Z,100671.75
2023-04-15T22:03:54.144Z,100679.66
2023-04-15T22:06:21.490Z,100672.06
2023-04-15T22:08:57.040Z,100673.97
2023-04-15T22:11:29.737Z,100673.91
2023-04-15T22:13:57.935Z,100680.75
2023-04-15T22:16:26.285Z,100681.63
2023-04-15T22:18:53.668Z,100679.91
2023-04-15T22:21:20.770Z,100678.19
2023-04-15T22:23:48.794Z,100686.78
2023-04-15T22:26:15.897Z,100693.09
2023-04-15T22:28:42.805Z,100702.66
2023-04-15T22:31:10.018Z,100699.41
2023-04-15T22:33:37.078Z,100703.72
2023-04-15T22:36:03.929Z,100704.66
2023-04-15T22:38:31.076Z,100701.91
2023-04-15T22:40:58.499Z,100695.03
2023-04-15T22:43:26.145Z,100696.84
2023-04-15T22:45:55.084Z,100701.06
2023-04-15T22:48:22.275Z,100709.41
2023-04-15T22:50:49.465Z,100702.03
2023-04-15T22:53:17.461Z,100711.34
2023-04-15T22:55:48.305Z,100703.38
2023-04-15T22:58:15.739Z,100708.63
2023-04-15T23:00:42.585Z,100718.13
2023-04-15T23:03:09.616Z,100729.41
2023-04-15T23:05:36.800Z,100714.91
2023-04-15T23:08:03.684Z,100721.84
2023-04-15T23:10:30.406Z,100727.81
2023-04-15T23:12:57.196Z,100719.94
2023-04-15T23:15:24.118Z,100709.59
2023-04-15T23:17:51.234Z,100713.06
2023-04-15T23:20:18.039Z,100719.50
2023-04-15T23:22:45.166Z,100723.78
2023-04-15T23:25:11.901Z,100735.94
2023-04-15T23:27:38.690Z,100739.41
2023-04-15T23:30:06.343Z,100738.63
2023-04-15T23:32:33.290Z,100743.66
2023-04-15T23:35:00.086Z,100742.88
2023-04-15T23:37:26.848Z,100743.00
2023-04-15T23:39:55.944Z,100750.84
2023-04-15T23:42:24.291Z,100745.50
2023-04-15T23:44:51.324Z,100735.94
2023-04-15T23:47:18.244Z,100743.66
2023-04-15T23:49:45.064Z,100742.03
2023-04-15T23:52:11.887Z,100738.84
2023-04-15T23:54:40.063Z,100739.94
2023-04-15T23:57:06.867Z,100743.72
2023-04-15T23:59:33.670Z,100749.06
